Time;durP1;ratioP1;P1;durP2;ratioP2;P2;SDS_P1;SDS_P2;PMS_P1;PMS_P2;Temp;Humidity;BMP_temperature;BMP_pressure;BME280_temperature;BME280_humidity;BME280_pressure;Samples;Min_cycle;Max_cycle;Signal;HPM_P1;HPM_P2
2021/04/06 00:00:45;;;;;;;1.17;0.70;;;;;;;-2.16;73.01;98559.47;5089788;28;20036;-73
2021/04/06 00:03:14;;;;;;;4.60;0.77;;;;;;;-2.01;72.63;98572.25;5092762;28;20038;-71
2021/04/06 00:05:42;;;;;;;1.92;0.60;;;;;;;-1.91;72.74;98585.59;5085902;28;20030;-74
2021/04/06 00:08:08;;;;;;;0.75;0.60;;;;;;;-1.88;72.39;98571.22;5090402;28;20009;-71
2021/04/06 00:10:51;;;;;;;8.02;0.82;;;;;;;-2.06;73.17;98595.66;5085920;28;20070;-74
2021/04/06 00:13:17;;;;;;;2.72;0.77;;;;;;;-2.09;73.90;98582.66;5080026;28;20503;-72
2021/04/06 00:15:44;;;;;;;3.70;0.82;;;;;;;-2.23;75.24;98586.47;5085886;28;20033;-71
2021/04/06 00:18:13;;;;;;;3.35;1.00;;;;;;;-2.29;76.13;98591.44;5076525;28;20476;-72
2021/04/06 00:20:40;;;;;;;2.90;0.73;;;;;;;-2.20;74.96;98585.38;5092567;28;20084;-74
2021/04/06 00:23:08;;;;;;;2.83;1.20;;;;;;;-2.31;75.75;98558.94;5095216;28;20024;-71
2021/04/06 00:25:38;;;;;;;2.55;0.90;;;;;;;-2.17;75.78;98590.44;5098835;28;20020;-71
2021/04/06 00:28:07;;;;;;;2.88;0.98;;;;;;;-2.33;76.09;98574.09;5083436;28;20402;-71
2021/04/06 00:30:34;;;;;;;;;;;;;;;-2.19;76.95;98591.53;5076677;28;20028;-71
2021/04/06 00:33:12;;;;;;;5.28;1.40;;;;;;;-2.36;76.84;98575.19;5097414;28;20373;-70
2021/04/06 00:35:38;;;;;;;5.15;1.50;;;;;;;-2.37;77.92;98570.88;5093060;28;20050;-71
2021/04/06 00:38:07;;;;;;;4.63;1.67;;;;;;;-2.40;78.02;98581.72;5091001;28;20440;-71
2021/04/06 00:40:36;;;;;;;3.38;1.20;;;;;;;-2.43;79.05;98588.13;5087632;28;20024;-70
2021/04/06 00:43:04;;;;;;;4.30;1.00;;;;;;;-2.54;79.13;98574.06;5086130;28;20108;-73
2021/04/06 00:45:32;;;;;;;3.40;1.15;;;;;;;-2.62;79.91;98580.03;5085580;28;20055;-71
2021/04/06 00:47:59;;;;;;;2.33;1.02;;;;;;;-2.56;80.18;98574.22;5092775;28;20020;-71
2021/04/06 00:50:31;;;;;;;2.72;1.08;;;;;;;-2.57;79.95;98598.16;5092979;28;20036;-72
2021/04/06 00:52:56;;;;;;;2.55;1.20;;;;;;;-2.53;79.91;98597.78;5078234;28;20123;-71
2021/04/06 00:55:21;;;;;;;4.30;1.73;;;;;;;-2.58;79.42;98591.19;5093726;28;20026;-70
2021/04/06 00:57:47;;;;;;;3.28;1.35;;;;;;;-2.62;80.03;98601.22;5093254;28;20020;-71
2021/04/06 01:00:17;;;;;;;4.32;1.40;;;;;;;-2.53;79.96;98611.03;5091815;28;20036;-71
2021/04/06 01:03:07;;;;;;;5.75;1.33;;;;;;;-2.58;79.81;98599.13;5092089;28;20028;-71
2021/04/06 01:05:58;;;;;;;3.42;1.33;;;;;;;-2.57;79.69;98596.34;5091370;28;20024;-71
2021/04/06 01:08:27;;;;;;;2.13;0.90;;;;;;;-2.58;79.66;98599.97;5093848;28;20020;-73
2021/04/06 01:10:53;;;;;;;2.58;1.20;;;;;;;-2.63;78.52;98578.31;5074088;28;20024;-71
2021/04/06 01:13:19;;;;;;;4.10;1.10;;;;;;;-2.54;78.69;98589.97;5083550;28;20030;-70
2021/04/06 01:15:45;;;;;;;3.03;0.80;;;;;;;-2.53;78.53;98587.19;5089224;28;20119;-71
2021/04/06 01:18:11;;;;;;;3.22;0.80;;;;;;;-2.49;78.27;98586.00;5094000;28;20160;-71
2021/04/06 01:20:36;;;;;;;2.22;0.80;;;;;;;-2.66;78.75;98571.47;5092439;28;20059;-73
2021/04/06 01:23:09;;;;;;;2.22;1.00;;;;;;;-2.63;78.39;98562.44;5094243;28;20028;-70
2021/04/06 01:25:41;;;;;;;3.50;0.70;;;;;;;-2.51;78.12;98577.31;5093658;28;20104;-71
2021/04/06 01:28:08;;;;;;;3.60;0.60;;;;;;;-2.52;78.52;98578.28;5093319;28;20024;-71
2021/04/06 01:30:45;;;;;;;2.00;0.93;;;;;;;-2.59;78.87;98589.50;5081093;28;20022;-71
2021/04/06 01:33:17;;;;;;;3.85;1.02;;;;;;;-2.74;78.73;98560.66;5082289;28;20071;-73
2021/04/06 01:35:47;;;;;;;4.22;1.20;;;;;;;-2.69;79.13;98563.78;5073429;28;20020;-71
2021/04/06 01:38:14;;;;;;;2.88;1.20;;;;;;;-2.79;79.56;98565.50;5084237;28;20023;-71
2021/04/06 01:40:41;;;;;;;4.88;0.90;;;;;;;-2.87;79.95;98544.09;5090893;28;20059;-70
2021/04/06 01:43:09;;;;;;;1.63;0.93;;;;;;;-2.99;80.46;98550.38;5085656;28;20485;-72
2021/04/06 01:45:43;;;;;;;3.40;1.00;;;;;;;-2.90;80.09;98566.38;5092129;28;20031;-71
2021/04/06 01:48:09;;;;;;;4.60;1.00;;;;;;;-2.92;79.80;98560.34;5095285;28;20035;-71
2021/04/06 01:50:35;;;;;;;4.95;0.77;;;;;;;-2.91;80.09;98545.31;5097954;28;20027;-71
2021/04/06 01:53:00;;;;;;;5.05;1.13;;;;;;;-3.13;80.13;98527.69;5094943;28;20543;-72
2021/04/06 01:55:34;;;;;;;3.30;0.98;;;;;;;-3.05;79.98;98527.91;5096339;28;20062;-71
2021/04/06 01:58:00;;;;;;;9.32;1.40;;;;;;;-2.94;79.63;98542.91;5077471;28;20024;-72
2021/04/06 02:02:51;;;;;;;3.25;1.02;;;;;;;-2.96;79.74;98537.75;5081855;28;20115;-73
2021/04/06 02:05:18;;;;;;;4.32;1.75;;;;;;;-2.88;79.42;98537.97;5083752;28;20028;-72
2021/04/06 02:07:45;;;;;;;5.93;1.15;;;;;;;-2.93;79.45;98534.03;5078443;28;20493;-71
2021/04/06 02:10:12;;;;;;;5.43;1.10;;;;;;;-2.95;79.44;98542.09;5094328;28;20304;-71
2021/04/06 02:12:39;;;;;;;2.30;1.17;;;;;;;-3.12;79.59;98537.31;5093271;28;20020;-72
2021/04/06 02:15:10;;;;;;;2.42;1.25;;;;;;;-2.97;80.02;98554.59;5095327;28;20024;-71
2021/04/06 02:17:51;;;;;;;1.10;0.80;;;;;;;-2.98;79.58;98534.38;5097624;28;20521;-71
2021/04/06 02:20:24;;;;;;;6.22;1.40;;;;;;;-2.73;79.45;98545.63;5096788;28;20034;-71
2021/04/06 02:23:00;;;;;;;5.10;1.30;;;;;;;-2.62;78.98;98544.72;5094952;28;20051;-71
2021/04/06 02:25:30;;;;;;;5.88;0.90;;;;;;;-2.52;78.54;98548.31;5097402;28;20481;-72
2021/04/06 02:27:56;;;;;;;3.60;1.02;;;;;;;-2.44;78.42;98544.06;5087323;28;20600;-71
2021/04/06 02:30:29;;;;;;;6.82;1.10;;;;;;;-2.38;77.71;98523.31;5095794;28;20024;-73
2021/04/06 02:32:56;;;;;;;3.95;1.00;;;;;;;-2.36;77.28;98532.81;5093250;28;20034;-72
2021/04/06 02:35:21;;;;;;;2.97;0.77;;;;;;;-2.42;77.05;98522.72;5078581;28;20060;-71
2021/04/06 02:37:47;;;;;;;3.80;0.90;;;;;;;-2.33;76.88;98543.16;5091874;28;20039;-71
2021/04/06 02:40:16;;;;;;;3.28;0.93;;;;;;;-2.34;76.34;98548.59;5091549;28;20456;-72
2021/04/06 02:42:44;;;;;;;4.03;1.17;;;;;;;-2.50;75.86;98510.13;5096833;28;20039;-71
2021/04/06 02:45:15;;;;;;;3.08;1.15;;;;;;;-2.33;76.18;98537.88;5096819;28;20031;-72
2021/04/06 02:47:44;;;;;;;3.45;1.00;;;;;;;-2.29;75.89;98533.16;5097815;28;20020;-74
2021/04/06 02:50:13;;;;;;;9.00;1.48;;;;;;;-2.24;76.20;98530.94;5088041;28;20068;-72
2021/04/06 02:52:38;;;;;;;9.15;1.30;;;;;;;-2.13;75.61;98528.22;5089709;28;20778;-72
2021/04/06 02:55:10;;;;;;;6.90;1.02;;;;;;;-2.06;74.77;98531.22;5096693;28;20020;-71
2021/04/06 02:57:49;;;;;;;5.05;0.80;;;;;;;-2.00;75.04;98517.44;5080258;28;20426;-71
2021/04/06 03:00:27;;;;;;;2.60;0.95;;;;;;;-1.88;75.03;98531.47;5086886;28;20470;-72
2021/04/06 03:02:59;;;;;;;5.55;1.10;;;;;;;-1.84;75.13;98527.56;5078429;28;20111;-71
2021/04/06 03:05:33;;;;;;;2.83;0.75;;;;;;;-1.92;74.89;98514.13;5095150;28;20073;-74
2021/04/06 03:08:02;;;;;;;7.10;1.42;;;;;;;-1.88;74.95;98516.38;5094323;28;20028;-71
2021/04/06 03:10:28;;;;;;;5.57;1.27;;;;;;;-1.97;74.09;98506.56;5096143;28;20032;-75
2021/04/06 03:12:53;;;;;;;4.55;0.98;;;;;;;-2.00;74.00;98498.88;5096353;28;20078;-72
2021/04/06 03:15:24;;;;;;;1.83;1.02;;;;;;;-2.00;74.02;98498.88;5095234;28;20020;-71
2021/04/06 03:17:52;;;;;;;3.97;1.17;;;;;;;-2.08;75.04;98501.34;5094364;28;20023;-72
2021/04/06 03:20:19;;;;;;;5.60;1.45;;;;;;;-2.21;74.67;98483.81;5090450;28;20020;-72
2021/04/06 03:22:47;;;;;;;5.32;1.13;;;;;;;-2.10;74.38;98504.09;5096880;28;20024;-71
2021/04/06 03:25:13;;;;;;;4.35;1.00;;;;;;;-2.03;74.35;98517.69;5095187;28;20077;-72
2021/04/06 03:27:48;;;;;;;7.82;1.10;;;;;;;-1.96;74.15;98523.31;5094207;28;20504;-71
2021/04/06 03:30:37;;;;;;;4.40;1.10;;;;;;;-1.90;73.62;98520.97;5090685;28;20028;-71
2021/04/06 03:33:02;;;;;;;3.65;0.95;;;;;;;-1.82;73.86;98518.50;5091505;28;20424;-72
2021/04/06 03:35:28;;;;;;;6.55;1.05;;;;;;;-1.81;73.07;98519.34;5095865;28;20081;-73
2021/04/06 03:37:54;;;;;;;4.22;0.98;;;;;;;-1.70;72.77;98516.63;5089959;28;20074;-74
2021/04/06 03:40:20;;;;;;;10.50;0.75;;;;;;;-1.67;72.07;98519.00;5085302;28;20024;-71
2021/04/06 03:42:46;;;;;;;3.22;1.00;;;;;;;-1.68;72.94;98506.69;5076874;28;20031;-72
2021/04/06 03:45:12;;;;;;;6.50;1.25;;;;;;;-1.69;72.27;98506.84;5096092;28;20338;-71
2021/04/06 03:47:57;;;;;;;5.03;0.82;;;;;;;-1.59;72.09;98515.69;5095135;28;20554;-72
2021/04/06 03:50:41;;;;;;;2.78;0.93;;;;;;;-1.66;72.61;98502.09;5094422;28;20110;-71
2021/04/06 03:53:08;;;;;;;7.55;0.80;;;;;;;-1.63;72.78;98509.78;5095599;28;20570;-71
2021/04/06 03:55:35;;;;;;;3.28;0.90;;;;;;;-1.65;72.93;98511.75;5093385;28;20043;-68
2021/04/06 03:58:06;;;;;;;1.95;0.80;;;;;;;-1.62;72.82;98522.09;5086225;28;20238;-72
2021/04/06 04:00:32;;;;;;;4.45;0.88;;;;;;;-1.67;73.47;98515.50;5088536;28;20032;-73
2021/04/06 04:02:59;;;;;;;4.05;1.13;;;;;;;-1.57;72.87;98513.75;5079193;28;20044;-71
2021/04/06 04:05:24;;;;;;;6.32;1.30;;;;;;;-1.53;73.46;98524.91;5102798;28;20012;-70
2021/04/06 04:07:49;;;;;;;3.20;1.00;;;;;;;-1.42;73.69;98528.28;5107354;28;20020;-72
2021/04/06 04:10:14;;;;;;;5.22;1.15;;;;;;;-1.58;73.36;98504.91;5109260;27;20016;-72
2021/04/06 04:12:40;;;;;;;3.33;1.30;;;;;;;-1.50;73.96;98519.34;5106276;28;20044;-70
2021/04/06 04:15:06;;;;;;;7.57;1.17;;;;;;;-1.61;73.93;98507.84;5105821;28;20035;-70
2021/04/06 04:17:31;;;;;;;6.20;1.10;;;;;;;-1.62;74.32;98506.19;5097506;28;20016;-74
2021/04/06 04:19:57;;;;;;;4.97;1.40;;;;;;;-1.48;74.66;98523.53;5111994;22;20076;-70
2021/04/06 04:22:22;;;;;;;9.65;1.40;;;;;;;-1.64;74.52;98508.13;5079239;28;20032;-75
2021/04/06 04:24:48;;;;;;;6.05;1.30;;;;;;;-1.54;74.48;98508.16;5082451;28;20107;-79
2021/04/06 04:27:13;;;;;;;6.60;1.50;;;;;;;-1.47;73.88;98509.28;5087324;28;20107;-76
2021/04/06 04:29:38;;;;;;;8.32;1.23;;;;;;;-1.42;74.19;98514.19;5073353;28;20039;-77
2021/04/06 04:32:12;;;;;;;5.85;1.50;;;;;;;-1.55;74.82;98498.50;5061667;28;20108;-78
2021/04/06 04:34:38;;;;;;;12.10;1.48;;;;;;;-1.55;74.43;98501.16;5073268;28;20028;-77
2021/04/06 04:37:03;;;;;;;5.13;1.73;;;;;;;-1.48;74.61;98506.78;5071887;28;20032;-80
2021/04/06 04:39:28;;;;;;;5.38;1.20;;;;;;;-1.53;74.76;98504.53;5069929;28;20020;-75
2021/04/06 04:41:53;;;;;;;3.08;1.23;;;;;;;-1.52;75.36;98486.78;5064647;28;20028;-75
2021/04/06 04:44:19;;;;;;;7.50;1.50;;;;;;;-1.58;74.33;98486.34;5067638;28;20162;-75
2021/04/06 04:46:45;;;;;;;5.22;1.42;;;;;;;-1.39;74.88;98500.66;5067732;28;20037;-79
2021/04/06 04:49:11;;;;;;;3.25;1.50;;;;;;;-1.46;74.79;98487.09;5058752;28;20469;-77
2021/04/06 04:51:36;;;;;;;2.67;1.13;;;;;;;-1.36;74.80;98503.06;5057748;28;20043;-77
2021/04/06 04:54:01;;;;;;;6.35;1.60;;;;;;;-1.44;74.60;98494.91;5086442;28;20095;-77
2021/04/06 04:56:27;;;;;;;4.72;1.50;;;;;;;-1.44;74.72;98486.94;5071635;28;20111;-76
2021/04/06 04:58:52;;;;;;;5.53;1.50;;;;;;;-1.38;74.96;98494.38;5070369;28;20028;-76
2021/04/06 05:01:17;;;;;;;7.35;1.35;;;;;;;-1.32;74.91;98496.50;5052612;28;20059;-76
2021/04/06 05:03:42;;;;;;;6.32;1.70;;;;;;;-1.36;74.59;98489.78;5070663;28;20028;-75
2021/04/06 05:06:08;;;;;;;3.30;1.38;;;;;;;-1.32;74.14;98483.22;5072602;28;20058;-76
2021/04/06 05:08:33;;;;;;;9.50;1.60;;;;;;;-1.28;74.18;98497.91;5070260;28;20095;-74
2021/04/06 05:10:59;;;;;;;3.20;1.60;;;;;;;-1.40;74.37;98483.06;5066411;28;20503;-73
2021/04/06 05:13:26;;;;;;;9.10;1.73;;;;;;;-1.23;74.85;98511.63;5064607;28;20040;-75
2021/04/06 05:15:51;;;;;;;4.40;1.10;;;;;;;-1.13;74.47;98501.84;5081419;28;20037;-75
2021/04/06 05:18:16;;;;;;;9.20;1.83;;;;;;;-1.17;73.98;98491.63;5070217;28;20459;-75
2021/04/06 05:20:41;;;;;;;10.90;1.52;;;;;;;-1.14;74.45;98489.53;5070924;28;20060;-77
2021/04/06 05:23:07;;;;;;;5.00;1.23;;;;;;;-1.11;74.41;98488.44;5069288;28;20032;-81
2021/04/06 05:25:32;;;;;;;5.18;1.60;;;;;;;-1.08;73.51;98492.63;5057198;28;20028;-72
2021/04/06 05:27:57;;;;;;;7.70;1.45;;;;;;;-1.13;74.16;98485.06;5063602;28;20049;-76
2021/04/06 05:30:23;;;;;;;6.13;1.45;;;;;;;-0.96;73.98;98495.03;5069513;28;20028;-78
2021/04/06 05:32:48;;;;;;;5.82;1.45;;;;;;;-0.97;73.75;98495.16;5068676;28;20056;-72
2021/04/06 05:35:13;;;;;;;12.27;1.70;;;;;;;-1.11;74.16;98491.91;5063982;28;20040;-71
2021/04/06 05:37:39;;;;;;;7.60;1.40;;;;;;;-0.94;74.19;98493.06;5057251;28;20444;-72
2021/04/06 05:40:05;;;;;;;6.45;1.38;;;;;;;-0.88;74.07;98499.66;5054851;28;20025;-77
2021/04/06 05:42:30;;;;;;;10.68;1.52;;;;;;;-0.90;73.37;98491.81;5052642;28;20020;-76
2021/04/06 05:44:56;;;;;;;4.07;1.48;;;;;;;-0.66;73.47;98511.81;5068504;28;20440;-79
2021/04/06 05:47:44;;;;;;;6.07;1.50;;;;;;;-0.70;73.55;98516.56;5083721;28;20387;-76
2021/04/06 05:50:10;;;;;;;3.57;1.10;;;;;;;-0.60;73.64;98510.41;5054555;28;20033;-78
2021/04/06 05:52:44;;;;;;;11.55;1.50;;;;;;;-0.74;73.18;98499.22;5071459;28;20030;-77
2021/04/06 05:55:10;;;;;;;10.07;1.42;;;;;;;-0.78;73.62;98492.53;5083663;28;20060;-74
2021/04/06 05:57:35;;;;;;;7.72;2.13;;;;;;;-0.77;74.14;98496.00;5075841;28;20040;-76
2021/04/06 06:00:03;;;;;;;9.27;1.50;;;;;;;-0.61;73.27;98506.09;5079789;28;20025;-75
2021/04/06 06:02:30;;;;;;;4.22;1.40;;;;;;;-0.52;72.25;98494.63;5067866;28;20029;-78
2021/04/06 06:04:56;;;;;;;3.05;1.63;;;;;;;-0.50;73.39;98498.81;5068605;28;20025;-75
2021/04/06 06:07:21;;;;;;;8.02;1.52;;;;;;;-0.32;72.06;98492.78;5071625;28;20027;-76
2021/04/06 06:09:47;;;;;;;5.18;1.40;;;;;;;-0.50;71.74;98490.84;5062599;28;20410;-75
2021/04/06 06:12:14;;;;;;;5.85;1.50;;;;;;;-0.43;72.58;98491.13;5065993;28;20028;-73
2021/04/06 06:14:44;;;;;;;6.30;1.50;;;;;;;-0.39;72.25;98503.16;5077010;28;20062;-76
2021/04/06 06:17:21;;;;;;;6.15;1.48;;;;;;;-0.44;72.31;98505.41;5072450;28;20078;-75
2021/04/06 06:19:49;;;;;;;7.07;1.63;;;;;;;-0.42;72.27;98508.72;5074546;28;20032;-73
2021/04/06 06:22:25;;;;;;;6.70;1.42;;;;;;;-0.47;72.60;98517.13;5065301;28;20111;-72
2021/04/06 06:25:02;;;;;;;9.07;1.45;;;;;;;-0.30;72.34;98518.22;5082588;28;20037;-73
2021/04/06 06:27:40;;;;;;;6.05;1.33;;;;;;;-0.38;72.05;98504.81;5072288;28;20044;-74
2021/04/06 06:30:32;;;;;;;8.65;1.88;;;;;;;-0.56;72.10;98503.84;5064006;28;20037;-72
2021/04/06 06:33:12;;;;;;;4.07;1.30;;;;;;;-0.39;73.24;98524.41;5094357;28;20135;-76
2021/04/06 06:35:39;;;;;;;4.15;1.55;;;;;;;-0.27;72.28;98522.44;5086903;28;20066;-80
2021/04/06 06:38:24;;;;;;;4.03;1.45;;;;;;;-0.30;72.53;98526.22;5083822;28;20474;-79
2021/04/06 06:40:52;;;;;;;7.10;1.60;;;;;;;-0.41;72.36;98499.78;5081150;28;20058;-74
2021/04/06 06:43:20;;;;;;;5.53;2.00;;;;;;;-0.34;72.07;98516.00;5088651;28;20051;-81
2021/04/06 06:45:47;;;;;;;6.68;1.38;;;;;;;-0.18;71.81;98502.97;5084013;28;20032;-74
2021/04/06 06:48:26;;;;;;;10.07;1.40;;;;;;;-0.17;71.75;98509.13;5076717;28;20028;-74
2021/04/06 06:50:52;;;;;;;;;;;;;;;-0.16;72.49;98516.13;5087930;28;20028;-76
2021/04/06 06:53:49;;;;;;;5.25;1.42;;;;;;;-0.20;72.03;98528.03;5082243;28;19920;-76
2021/04/06 06:56:15;;;;;;;5.93;1.45;;;;;;;0.13;71.26;98527.56;5040726;28;20044;-72
2021/04/06 06:58:42;;;;;;;5.32;1.33;;;;;;;0.19;70.86;98504.84;5081972;28;20020;-71
2021/04/06 07:01:32;;;;;;;7.00;1.40;;;;;;;0.27;70.71;98520.09;5083385;28;20032;-72
2021/04/06 07:04:14;;;;;;;5.70;1.30;;;;;;;0.17;71.31;98528.09;5086546;28;20092;-72
2021/04/06 07:06:42;;;;;;;5.78;1.27;;;;;;;-0.08;70.77;98503.81;5076665;28;20025;-72
2021/04/06 07:09:24;;;;;;;4.18;1.40;;;;;;;-0.07;71.94;98531.22;5077649;28;20493;-72
2021/04/06 07:12:02;;;;;;;6.18;1.67;;;;;;;-0.14;72.34;98530.13;5077113;28;20352;-72
2021/04/06 07:14:29;;;;;;;4.80;1.30;;;;;;;-0.04;71.92;98530.94;5079501;28;20061;-72
2021/04/06 07:16:56;;;;;;;5.30;1.45;;;;;;;-0.11;71.46;98512.03;5079640;28;20025;-70
2021/04/06 07:19:22;;;;;;;6.93;2.00;;;;;;;-0.13;71.87;98515.81;5077740;28;20033;-72
2021/04/06 07:21:52;;;;;;;7.85;1.73;;;;;;;0.11;71.78;98542.81;5075991;28;20055;-72
2021/04/06 07:24:25;;;;;;;4.07;1.48;;;;;;;0.14;71.46;98526.56;5091279;28;20021;-74
2021/04/06 07:26:51;;;;;;;3.28;1.45;;;;;;;-0.02;71.47;98539.63;5073018;28;20064;-71
2021/04/06 07:29:18;;;;;;;7.28;1.50;;;;;;;-0.14;71.77;98515.00;5078606;28;20473;-77
2021/04/06 07:31:43;;;;;;;9.60;1.80;;;;;;;0.01;71.30;98531.34;5094083;28;20020;-74
2021/04/06 07:34:10;;;;;;;6.78;1.95;;;;;;;-0.17;72.61;98517.09;5082233;28;20032;-76
2021/04/06 07:36:36;;;;;;;5.40;1.65;;;;;;;0.04;71.74;98528.41;5081570;28;20020;-80
2021/04/06 07:39:06;;;;;;;6.00;1.25;;;;;;;0.13;71.71;98521.38;5082557;28;20432;-75
2021/04/06 07:41:34;;;;;;;4.85;1.60;;;;;;;0.16;71.14;98539.72;5079048;28;20096;-79
2021/04/06 07:44:03;;;;;;;10.63;1.92;;;;;;;0.01;71.41;98531.34;5079514;28;20027;-76
2021/04/06 07:46:38;;;;;;;10.67;1.73;;;;;;;0.17;72.29;98534.25;5073863;28;20051;-77
2021/04/06 07:49:17;;;;;;;6.00;2.20;;;;;;;0.40;70.18;98525.94;5073561;28;20275;-81
2021/04/06 07:51:45;;;;;;;5.88;1.58;;;;;;;0.58;69.68;98532.16;5077940;28;20088;-75
2021/04/06 07:54:32;;;;;;;6.90;1.98;;;;;;;0.77;69.74;98533.88;5078565;28;20477;-78
2021/04/06 07:57:01;;;;;;;8.98;1.85;;;;;;;0.69;69.68;98536.44;5092704;28;20039;-79
2021/04/06 07:59:26;;;;;;;6.53;1.83;;;;;;;0.77;70.32;98538.38;5069382;28;20062;-75
2021/04/06 08:01:54;;;;;;;5.30;2.10;;;;;;;0.51;70.62;98539.03;5066019;28;20032;-77
2021/04/06 08:04:27;;;;;;;6.97;1.60;;;;;;;0.63;70.30;98547.69;5066674;28;20032;-78
2021/04/06 08:06:54;;;;;;;7.63;2.10;;;;;;;0.64;70.30;98536.88;5070501;28;20059;-79
2021/04/06 08:09:32;;;;;;;6.10;2.10;;;;;;;0.42;70.88;98545.25;5074075;28;20112;-79
2021/04/06 08:12:13;;;;;;;9.57;2.50;;;;;;;0.60;70.64;98547.97;5085582;28;20563;-79
2021/04/06 08:14:44;;;;;;;6.57;1.70;;;;;;;0.81;69.25;98537.06;5054661;28;20039;-77
2021/04/06 08:17:28;;;;;;;5.22;1.60;;;;;;;0.76;70.22;98539.34;5069475;28;20024;-71
2021/04/06 08:20:16;;;;;;;5.25;1.80;;;;;;;0.92;69.67;98541.38;5068730;28;20051;-78
2021/04/06 08:22:50;;;;;;;3.72;1.83;;;;;;;0.72;69.51;98545.97;5074752;28;20024;-75
2021/04/06 08:25:16;;;;;;;7.13;2.03;;;;;;;0.96;69.10;98550.75;5074409;28;20020;-76
2021/04/06 08:28:02;;;;;;;8.60;2.08;;;;;;;0.83;69.99;98541.28;5068516;28;20456;-75
2021/04/06 08:30:33;;;;;;;6.90;2.75;;;;;;;0.93;70.24;98551.88;5071418;28;20481;-74
2021/04/06 08:33:02;;;;;;;4.35;1.88;;;;;;;0.92;69.17;98544.88;5082267;28;20025;-81
2021/04/06 08:35:46;;;;;;;10.23;2.30;;;;;;;0.58;69.40;98544.63;5060450;28;20362;-75
2021/04/06 08:38:34;;;;;;;7.03;2.47;;;;;;;0.47;70.21;98561.59;5053730;28;20433;-75
2021/04/06 08:41:14;;;;;;;11.95;1.83;;;;;;;0.69;69.61;98560.41;5065857;28;20115;-75
2021/04/06 08:43:46;;;;;;;8.50;2.00;;;;;;;0.84;69.28;98555.44;5062597;28;20044;-74
2021/04/06 08:46:36;;;;;;;7.32;2.25;;;;;;;0.74;69.38;98557.31;5062318;28;20051;-77
2021/04/06 08:49:10;;;;;;;4.28;1.90;;;;;;;1.09;69.34;98552.06;5080421;28;20124;-80
2021/04/06 08:51:47;;;;;;;10.50;2.40;;;;;;;1.19;69.08;98552.00;5069370;28;20080;-76
2021/04/06 08:54:39;;;;;;;6.47;1.90;;;;;;;1.09;69.13;98546.72;5065557;28;20024;-77
2021/04/06 08:57:08;;;;;;;7.97;2.00;;;;;;;1.20;69.62;98548.34;5062928;28;20120;-80
2021/04/06 08:59:35;;;;;;;5.47;1.80;;;;;;;1.12;68.83;98547.44;5057912;28;20020;-76
2021/04/06 09:02:14;;;;;;;4.35;1.58;;;;;;;1.23;68.15;98557.88;5081832;28;20029;-79
2021/04/06 09:04:43;;;;;;;5.35;1.90;;;;;;;1.42;68.04;98552.44;5079688;28;20043;-74
2021/04/06 09:07:22;;;;;;;12.38;2.60;;;;;;;1.41;68.36;98556.06;5090654;28;20043;-73
2021/04/06 09:09:51;;;;;;;5.88;1.70;;;;;;;1.56;67.90;98555.56;5087817;28;20029;-78
2021/04/06 09:12:17;;;;;;;8.98;1.70;;;;;;;1.61;67.50;98543.44;5092718;28;20032;-77
2021/04/06 09:14:43;;;;;;;9.60;1.65;;;;;;;1.68;67.45;98541.00;5080189;28;20023;-75
2021/04/06 09:17:08;;;;;;;7.72;2.20;;;;;;;1.64;67.82;98551.13;5093023;28;20052;-77
2021/04/06 09:19:37;;;;;;;7.47;1.75;;;;;;;1.91;67.13;98552.00;5084167;28;20020;-74
2021/04/06 09:22:12;;;;;;;7.63;2.00;;;;;;;2.34;66.05;98542.31;5089475;28;20053;-78
2021/04/06 09:24:39;;;;;;;5.82;1.83;;;;;;;2.84;64.61;98542.41;5098849;28;20029;-77
2021/04/06 09:27:05;;;;;;;6.22;1.45;;;;;;;2.47;64.72;98541.91;5072331;28;20024;-76
2021/04/06 09:29:36;;;;;;;8.15;1.90;;;;;;;2.43;64.84;98536.03;5061805;28;20025;-75
2021/04/06 09:32:07;;;;;;;7.25;1.60;;;;;;;2.74;64.30;98540.88;5073251;28;20063;-82
2021/04/06 09:34:39;;;;;;;6.25;1.83;;;;;;;2.21;65.13;98542.75;5073491;28;20032;-78
2021/04/06 09:37:13;;;;;;;7.53;1.98;;;;;;;2.10;65.39;98541.16;5072128;28;20052;-78
2021/04/06 09:39:44;;;;;;;5.70;1.60;;;;;;;2.10;66.30;98540.34;5068584;28;20032;-76
2021/04/06 09:42:10;;;;;;;5.57;1.60;;;;;;;2.39;65.07;98542.69;5065476;28;20021;-75
2021/04/06 09:44:38;;;;;;;7.53;1.40;;;;;;;2.60;64.23;98540.47;5067049;28;20055;-75
2021/04/06 09:47:10;;;;;;;4.50;1.33;;;;;;;2.89;64.27;98539.25;5057660;28;20025;-70
2021/04/06 09:49:38;;;;;;;7.97;1.80;;;;;;;3.01;62.63;98529.09;5067820;28;20032;-74
2021/04/06 09:52:13;;;;;;;7.87;1.50;;;;;;;3.29;61.63;98521.69;5066726;28;20017;-75
2021/04/06 09:54:43;;;;;;;4.55;1.83;;;;;;;3.41;62.26;98524.88;5064638;28;20031;-77
2021/04/06 09:57:11;;;;;;;9.63;1.98;;;;;;;3.40;61.21;98517.84;5066377;28;20043;-75
2021/04/06 09:59:39;;;;;;;7.30;1.40;;;;;;;3.95;59.83;98510.00;5055769;28;20025;-76
2021/04/06 10:02:05;;;;;;;8.10;1.60;;;;;;;4.48;59.06;98510.44;5069029;28;20025;-78
2021/04/06 10:04:41;;;;;;;7.60;1.58;;;;;;;4.27;59.05;98512.81;5064554;28;20029;-73
2021/04/06 10:07:20;;;;;;;5.50;1.80;;;;;;;4.74;58.07;98507.53;5075942;28;20092;-76
2021/04/06 10:09:49;;;;;;;4.53;1.43;;;;;;;6.17;54.88;98496.34;5089204;28;20017;-79
2021/04/06 10:12:16;;;;;;;4.00;1.20;;;;;;;7.68;50.94;98473.41;5095772;27;20024;-80
2021/04/06 10:14:42;;;;;;;5.22;1.60;;;;;;;7.91;50.21;98489.34;5078885;28;20033;-70
2021/04/06 10:17:10;;;;;;;8.10;1.58;;;;;;;7.96;50.22;98478.00;5088587;28;20046;-73
2021/04/06 10:19:39;;;;;;;4.35;1.63;;;;;;;9.51;46.44;98460.56;5086753;28;20028;-67
2021/04/06 10:22:14;;;;;;;7.93;1.53;;;;;;;11.08;42.81;98465.22;5088895;28;20039;-68
2021/04/06 10:24:45;;;;;;;8.45;1.50;;;;;;;11.41;42.30;98461.47;5090168;28;20024;-69
2021/04/06 10:27:18;;;;;;;4.30;1.45;;;;;;;11.47;42.11;98443.53;5076070;28;20040;-66
2021/04/06 10:29:50;;;;;;;2.38;1.08;;;;;;;12.89;39.83;98436.44;5086126;28;20116;-69
2021/04/06 10:32:31;;;;;;;11.95;1.70;;;;;;;11.48;41.13;98446.03;5079816;28;20020;-71
2021/04/06 10:35:22;;;;;;;4.60;1.30;;;;;;;10.01;44.09;98440.25;5087765;28;20080;-67
2021/04/06 10:37:50;;;;;;;4.97;1.27;;;;;;;9.87;44.76;98442.09;5095734;28;20032;-68
2021/04/06 10:40:20;;;;;;;8.07;1.30;;;;;;;10.93;43.13;98437.56;5079746;28;20024;-70
2021/04/06 10:42:48;;;;;;;4.70;1.30;;;;;;;10.17;44.11;98430.88;5069886;28;20033;-70
2021/04/06 10:45:14;;;;;;;6.00;1.48;;;;;;;12.44;40.19;98435.88;5065546;28;20088;-72
2021/04/06 10:47:39;;;;;;;4.65;1.45;;;;;;;12.59;39.90;98421.97;5056873;28;20131;-71
2021/04/06 10:50:05;;;;;;;4.00;1.40;;;;;;;10.37;42.48;98430.84;5058943;28;20028;-69
2021/04/06 10:52:33;;;;;;;4.35;1.40;;;;;;;7.52;47.70;98433.28;5062453;28;20032;-69
2021/04/06 10:55:00;;;;;;;10.75;1.95;;;;;;;5.67;52.45;98447.59;5067539;28;20025;-70
2021/04/06 10:57:27;;;;;;;6.97;2.08;;;;;;;5.85;52.19;98444.59;5059102;28;20049;-70
2021/04/06 10:59:53;;;;;;;5.05;1.60;;;;;;;5.92;52.02;98437.47;5062613;28;20122;-71
2021/04/06 11:02:20;;;;;;;4.20;1.23;;;;;;;5.49;52.72;98439.84;5063699;28;20037;-71
2021/04/06 11:04:46;;;;;;;4.80;1.45;;;;;;;5.30;53.47;98437.66;5057118;28;20071;-72
2021/04/06 11:07:11;;;;;;;4.63;1.15;;;;;;;5.30;52.84;98440.34;5058327;28;20061;-73
2021/04/06 11:09:38;;;;;;;4.80;1.30;;;;;;;5.91;51.55;98426.91;5054015;28;20502;-73
2021/04/06 11:12:05;;;;;;;2.22;1.23;;;;;;;6.53;49.88;98417.72;5058904;28;20051;-71
2021/04/06 11:14:31;;;;;;;4.97;1.30;;;;;;;6.77;50.05;98405.81;5063809;28;20024;-71
2021/04/06 11:17:00;;;;;;;7.57;1.48;;;;;;;6.18;51.53;98412.06;5057156;28;20032;-70
2021/04/06 11:19:28;;;;;;;4.03;1.23;;;;;;;5.47;52.44;98406.16;5055940;28;20056;-73
2021/04/06 11:21:58;;;;;;;7.80;1.50;;;;;;;6.02;53.08;98404.19;5058269;28;20040;-72
2021/04/06 11:24:26;;;;;;;6.07;1.42;;;;;;;6.65;51.15;98397.38;5072013;28;20029;-74
2021/04/06 11:26:52;;;;;;;6.32;1.60;;;;;;;6.26;51.25;98389.63;5058020;28;20516;-70
2021/04/06 11:29:21;;;;;;;4.13;1.30;;;;;;;6.15;51.31;98404.38;5069432;28;20056;-71
2021/04/06 11:31:49;;;;;;;5.47;1.50;;;;;;;6.34;50.10;98384.16;5070356;28;20107;-72
2021/04/06 11:34:16;;;;;;;3.67;1.40;;;;;;;7.57;48.78;98390.44;5071026;28;20036;-72
2021/04/06 11:36:45;;;;;;;4.70;1.48;;;;;;;10.59;42.07;98371.09;5062980;28;20063;-74
2021/04/06 11:39:13;;;;;;;7.57;2.00;;;;;;;10.62;41.00;98371.50;5055945;28;20112;-73
2021/04/06 11:41:40;;;;;;;4.53;1.20;;;;;;;12.76;37.50;98365.16;5072987;28;20041;-72
2021/04/06 11:44:06;;;;;;;5.07;1.45;;;;;;;10.83;40.21;98378.47;5064447;28;20553;-74
2021/04/06 11:46:36;;;;;;;5.32;1.48;;;;;;;10.71;40.90;98372.91;5063919;28;20048;-72
2021/04/06 11:49:03;;;;;;;2.20;1.20;;;;;;;10.97;41.57;98371.13;5067070;28;20032;-63
2021/04/06 11:51:29;;;;;;;6.38;1.40;;;;;;;12.55;38.25;98363.75;5057782;28;20639;-63